sensor_id;sensor_type;location;lat;lon;timestamp;pressure;altitude;pressure_sealevel;temperature;humidity
12759;BME280;20944;47.048;15.390;2023-05-13T00:00:28;97670.25;;;10.92;100.00
12759;BME280;20944;47.048;15.390;2023-05-13T00:02:57;97674.81;;;10.85;100.00
12759;BME280;20944;47.048;15.390;2023-05-13T00:05:26;97678.34;;;10.84;100.00
12759;BME280;20944;47.048;15.390;2023-05-13T00:07:54;97677.47;;;10.84;100.00
12759;BME280;20944;47.048;15.390;2023-05-13T00:10:23;97674.81;;;10.85;100.00
12759;BME280;20944;47.048;15.390;2023-05-13T00:12:51;97670.38;;;10.87;100.00
12759;BME280;20944;47.048;15.390;2023-05-13T00:15:19;97672.19;;;10.85;100.00
12759;BME280;20944;47.048;15.390;2023-05-13T00:17:48;97663.63;;;10.78;100.00
12759;BME280;20944;47.048;15.390;2023-05-13T00:20:17;97600.06;;;10.41;100.00
12759;BME280;20944;47.048;15.390;2023-05-13T00:22:46;97667.00;;;10.84;100.00
12759;BME280;20944;47.048;15.390;2023-05-13T00:25:14;97673.13;;;10.83;100.00
12759;BME280;20944;47.048;15.390;2023-05-13T00:27:43;97671.38;;;10.83;100.00
12759;BME280;20944;47.048;15.390;2023-05-13T00:30:11;97596.63;;;10.39;100.00
12759;BME280;20944;47.048;15.390;2023-05-13T00:32:39;97656.44;;;10.85;100.00
12759;BME280;20944;47.048;15.390;2023-05-13T00:35:08;97654.00;;;10.79;100.00
12759;BME280;20944;47.048;15.390;2023-05-13T00:37:38;97655.81;;;10.77;100.00
12759;BME280;20944;47.048;15.390;2023-05-13T00:40:14;97667.97;;;10.79;100.00
12759;BME280;20944;47.048;15.390;2023-05-13T00:42:44;97612.34;;;10.39;100.00
12759;BME280;20944;47.048;15.390;2023-05-13T00:45:12;97660.44;;;10.69;100.00
12759;BME280;20944;47.048;15.390;2023-05-13T00:47:41;97666.94;;;10.85;100.00
12759;BME280;20944;47.048;15.390;2023-05-13T00:50:10;97641.28;;;10.65;100.00
12759;BME280;20944;47.048;15.390;2023-05-13T00:52:42;97672.97;;;10.89;100.00
12759;BME280;20944;47.048;15.390;2023-05-13T00:55:10;97654.09;;;10.76;100.00
12759;BME280;20944;47.048;15.390;2023-05-13T00:57:38;97666.19;;;10.80;100.00
12759;BME280;20944;47.048;15.390;2023-05-13T01:00:08;97678.63;;;10.73;100.00
12759;BME280;20944;47.048;15.390;2023-05-13T01:02:42;97684.66;;;10.77;100.00
12759;BME280;20944;47.048;15.390;2023-05-13T01:05:19;97679.63;;;10.69;100.00
12759;BME280;20944;47.048;15.390;2023-05-13T01:07:57;97670.84;;;10.70;100.00
12759;BME280;20944;47.048;15.390;2023-05-13T01:10:34;97677.53;;;10.80;100.00
12759;BME280;20944;47.048;15.390;2023-05-13T01:13:08;97615.06;;;10.34;100.00
12759;BME280;20944;47.048;15.390;2023-05-13T01:15:41;97681.84;;;10.83;100.00
12759;BME280;20944;47.048;15.390;2023-05-13T01:18:14;97689.16;;;10.72;100.00
12759;BME280;20944;47.048;15.390;2023-05-13T01:20:46;97691.28;;;10.58;100.00
12759;BME280;20944;47.048;15.390;2023-05-13T01:23:15;97699.22;;;10.56;100.00
12759;BME280;20944;47.048;15.390;2023-05-13T01:25:44;97693.22;;;10.51;100.00
12759;BME280;20944;47.048;15.390;2023-05-13T01:28:12;97691.34;;;10.56;100.00
12759;BME280;20944;47.048;15.390;2023-05-13T01:30:40;97695.84;;;10.51;100.00
12759;BME280;20944;47.048;15.390;2023-05-13T01:33:09;97692.16;;;10.58;100.00
12759;BME280;20944;47.048;15.390;2023-05-13T01:35:38;97693.88;;;10.59;100.00
12759;BME280;20944;47.048;15.390;2023-05-13T01:38:06;97677.66;;;10.45;100.00
12759;BME280;20944;47.048;15.390;2023-05-13T01:40:36;97670.03;;;10.36;100.00
12759;BME280;20944;47.048;15.390;2023-05-13T01:43:05;97689.75;;;10.49;100.00
12759;BME280;20944;47.048;15.390;2023-05-13T01:45:34;97695.06;;;10.47;100.00
12759;BME280;20944;47.048;15.390;2023-05-13T01:48:02;97689.75;;;10.49;100.00
12759;BME280;20944;47.048;15.390;2023-05-13T01:50:30;97693.22;;;10.51;100.00
12759;BME280;20944;47.048;15.390;2023-05-13T01:52:59;97686.28;;;10.50;100.00
12759;BME280;20944;47.048;15.390;2023-05-13T01:55:27;97691.16;;;10.62;100.00
12759;BME280;20944;47.048;15.390;2023-05-13T01:57:57;97685.88;;;10.64;100.00
12759;BME280;20944;47.048;15.390;2023-05-13T02:00:25;97681.47;;;10.66;100.00
12759;BME280;20944;47.048;15.390;2023-05-13T02:02:53;97689.31;;;10.66;100.00
12759;BME280;20944;47.048;15.390;2023-05-13T02:05:21;97689.28;;;10.67;100.00
12759;BME280;20944;47.048;15.390;2023-05-13T02:07:50;97689.31;;;10.66;100.00
12759;BME280;20944;47.048;15.390;2023-05-13T02:10:18;97691.03;;;10.67;100.00
12759;BME280;20944;47.048;15.390;2023-05-13T02:12:46;97694.50;;;10.67;100.00
12759;BME280;20944;47.048;15.390;2023-05-13T02:15:16;97691.03;;;10.67;100.00
12759;BME280;20944;47.048;15.390;2023-05-13T02:17:44;97693.66;;;10.67;100.00
12759;BME280;20944;47.048;15.390;2023-05-13T02:20:13;97699.75;;;10.67;100.00
12759;BME280;20944;47.048;15.390;2023-05-13T02:22:41;97699.63;;;10.72;100.00
12759;BME280;20944;47.048;15.390;2023-05-13T02:25:09;97687.66;;;10.62;100.00
12759;BME280;20944;47.048;15.390;2023-05-13T02:27:38;97704.03;;;10.71;100.00
12759;BME280;20944;47.048;15.390;2023-05-13T02:30:07;97704.81;;;10.73;100.00
12759;BME280;20944;47.048;15.390;2023-05-13T02:32:36;97707.53;;;10.70;100.00
12759;BME280;20944;47.048;15.390;2023-05-13T02:35:08;97705.66;;;10.75;100.00
12759;BME280;20944;47.048;15.390;2023-05-13T02:37:37;97707.34;;;10.78;100.00
12759;BME280;20944;47.048;15.390;2023-05-13T02:40:06;97708.19;;;10.78;100.00
12759;BME280;20944;47.048;15.390;2023-05-13T02:42:34;97684.97;;;10.65;100.00
12759;BME280;20944;47.048;15.390;2023-05-13T02:45:03;97711.03;;;10.71;100.00
12759;BME280;20944;47.048;15.390;2023-05-13T02:47:31;97685.38;;;10.49;100.00
12759;BME280;20944;47.048;15.390;2023-05-13T02:50:02;97704.19;;;10.65;100.00
12759;BME280;20944;47.048;15.390;2023-05-13T02:52:31;97683.81;;;10.44;100.00
12759;BME280;20944;47.048;15.390;2023-05-13T02:55:01;97635.50;;;10.20;100.00
12759;BME280;20944;47.048;15.390;2023-05-13T02:57:30;97709.31;;;10.70;100.00
12759;BME280;20944;47.048;15.390;2023-05-13T02:59:58;97709.34;;;10.68;100.00
12759;BME280;20944;47.048;15.390;2023-05-13T03:02:26;97706.75;;;10.67;100.00
12759;BME280;20944;47.048;15.390;2023-05-13T03:04:55;97638.13;;;10.20;100.00
12759;BME280;20944;47.048;15.390;2023-05-13T03:07:24;97711.13;;;10.66;100.00
12759;BME280;20944;47.048;15.390;2023-05-13T03:09:52;97718.16;;;10.66;100.00
12759;BME280;20944;47.048;15.390;2023-05-13T03:12:21;97718.09;;;10.67;100.00
12759;BME280;20944;47.048;15.390;2023-05-13T03:14:49;97715.53;;;10.66;100.00
12759;BME280;20944;47.048;15.390;2023-05-13T03:17:17;97719.81;;;10.68;100.00
12759;BME280;20944;47.048;15.390;2023-05-13T03:19:46;97720.72;;;10.67;100.00
12759;BME280;20944;47.048;15.390;2023-05-13T03:22:14;97720.72;;;10.67;100.00
12759;BME280;20944;47.048;15.390;2023-05-13T03:24:44;97719.81;;;10.68;100.00
12759;BME280;20944;47.048;15.390;2023-05-13T03:27:12;97724.19;;;10.68;100.00
12759;BME280;20944;47.048;15.390;2023-05-13T03:29:40;97706.88;;;10.62;100.00
12759;BME280;20944;47.048;15.390;2023-05-13T03:32:08;97718.06;;;10.69;100.00
12759;BME280;20944;47.048;15.390;2023-05-13T03:34:36;97722.38;;;10.71;100.00
12759;BME280;20944;47.048;15.390;2023-05-13T03:37:05;97727.50;;;10.76;100.00
12759;BME280;20944;47.048;15.390;2023-05-13T03:39:33;97718.63;;;10.80;100.00
12759;BME280;20944;47.048;15.390;2023-05-13T03:42:03;97717.72;;;10.81;100.00
12759;BME280;20944;47.048;15.390;2023-05-13T03:44:32;97705.03;;;10.66;100.00
12759;BME280;20944;47.048;15.390;2023-05-13T03:47:00;97712.84;;;10.67;100.00
12759;BME280;20944;47.048;15.390;2023-05-13T03:49:28;97731.94;;;10.72;100.00
12759;BME280;20944;47.048;15.390;2023-05-13T03:51:56;97690.66;;;10.48;100.00
12759;BME280;20944;47.048;15.390;2023-05-13T03:54:24;97733.75;;;10.70;100.00
12759;BME280;20944;47.048;15.390;2023-05-13T03:56:52;97732.03;;;10.69;100.00
12759;BME280;20944;47.048;15.390;2023-05-13T03:59:22;97724.34;;;10.62;100.00
12759;BME280;20944;47.048;15.390;2023-05-13T04:01:50;97732.03;;;10.69;100.00
12759;BME280;20944;47.048;15.390;2023-05-13T04:04:19;97732.00;;;10.71;100.00
12759;BME280;20944;47.048;15.390;2023-05-13T04:06:47;97736.38;;;10.70;100.00
12759;BME280;20944;47.048;15.390;2023-05-13T04:09:15;97734.56;;;10.72;100.00
12759;BME280;20944;47.048;15.390;2023-05-13T04:11:43;97669.28;;;10.32;100.00
12759;BME280;20944;47.048;15.390;2023-05-13T04:14:11;97736.31;;;10.72;100.00
12759;BME280;20944;47.048;15.390;2023-05-13T04:16:41;97741.56;;;10.72;100.00
12759;BME280;20944;47.048;15.390;2023-05-13T04:19:09;97741.53;;;10.73;100.00
12759;BME280;20944;47.048;15.390;2023-05-13T04:21:37;97743.22;;;10.74;100.00
12759;BME280;20944;47.048;15.390;2023-05-13T04:24:06;97745.84;;;10.76;100.00
12759;BME280;20944;47.048;15.390;2023-05-13T04:26:34;97745.75;;;10.79;100.00
12759;BME280;20944;47.048;15.390;2023-05-13T04:29:04;97749.22;;;10.79;100.00
12759;BME280;20944;47.048;15.390;2023-05-13T04:31:32;97750.91;;;10.82;100.00
12759;BME280;20944;47.048;15.390;2023-05-13T04:34:02;97745.63;;;10.84;100.00
12759;BME280;20944;47.048;15.390;2023-05-13T04:36:30;97703.56;;;10.56;100.00
12759;BME280;20944;47.048;15.390;2023-05-13T04:38:58;97745.50;;;10.88;100.00
12759;BME280;20944;47.048;15.390;2023-05-13T04:41:27;97752.59;;;10.85;100.00
12759;BME280;20944;47.048;15.390;2023-05-13T04:43:55;97757.72;;;10.89;100.00
12759;BME280;20944;47.048;15.390;2023-05-13T04:46:23;97757.66;;;10.91;100.00
12759;BME280;20944;47.048;15.390;2023-05-13T04:48:51;97745.75;;;10.79;100.00
12759;BME280;20944;47.048;15.390;2023-05-13T04:51:21;97754.31;;;10.86;100.00
12759;BME280;20944;47.048;15.390;2023-05-13T04:53:50;97749.31;;;10.76;100.00
12759;BME280;20944;47.048;15.390;2023-05-13T04:56:18;97762.22;;;10.84;100.00
12759;BME280;20944;47.048;15.390;2023-05-13T04:58:46;97749.28;;;10.78;100.00
12759;BME280;20944;47.048;15.390;2023-05-13T05:01:14;97751.84;;;10.79;100.00
12759;BME280;20944;47.048;15.390;2023-05-13T05:03:42;97767.47;;;10.84;100.00
12759;BME280;20944;47.048;15.390;2023-05-13T05:06:11;97774.34;;;10.88;100.00
12759;BME280;20944;47.048;15.390;2023-05-13T05:08:41;97768.94;;;10.94;100.00
12759;BME280;20944;47.048;15.390;2023-05-13T05:11:09;97712.09;;;10.64;100.00
12759;BME280;20944;47.048;15.390;2023-05-13T05:13:37;97770.56;;;10.98;100.00
12759;BME280;20944;47.048;15.390;2023-05-13T05:16:05;97779.34;;;10.97;100.00
12759;BME280;20944;47.048;15.390;2023-05-13T05:18:34;97776.75;;;10.96;100.00
12759;BME280;20944;47.048;15.390;2023-05-13T05:21:03;97761.94;;;10.95;100.00
12759;BME280;20944;47.048;15.390;2023-05-13T05:23:31;97752.34;;;10.94;100.00
12759;BME280;20944;47.048;15.390;2023-05-13T05:26:01;97779.06;;;11.08;100.00
12759;BME280;20944;47.048;15.390;2023-05-13T05:28:37;97791.25;;;11.09;100.00
12759;BME280;20944;47.048;15.390;2023-05-13T05:31:06;97780.03;;;11.04;100.00
12759;BME280;20944;47.048;15.390;2023-05-13T05:33:35;97781.75;;;11.05;100.00
12759;BME280;20944;47.048;15.390;2023-05-13T05:36:04;97783.34;;;11.11;100.00
12759;BME280;20944;47.048;15.390;2023-05-13T05:38:32;97784.25;;;11.10;100.00
12759;BME280;20944;47.048;15.390;2023-05-13T05:41:02;97794.78;;;11.08;100.00
12759;BME280;20944;47.048;15.390;2023-05-13T05:43:30;97792.22;;;11.06;100.00
12759;BME280;20944;47.048;15.390;2023-05-13T05:45:59;97779.28;;;10.99;100.00
12759;BME280;20944;47.048;15.390;2023-05-13T05:48:27;97796.66;;;11.03;100.00
12759;BME280;20944;47.048;15.390;2023-05-13T05:50:55;97797.53;;;11.03;100.00
12759;BME280;20944;47.048;15.390;2023-05-13T05:53:23;97798.38;;;11.04;100.00
12759;BME280;20944;47.048;15.390;2023-05-13T05:55:51;97802.72;;;11.05;100.00
12759;BME280;20944;47.048;15.390;2023-05-13T05:58:21;97796.53;;;11.07;100.00
12759;BME280;20944;47.048;15.390;2023-05-13T06:00:49;97800.03;;;11.08;100.00
12759;BME280;20944;47.048;15.390;2023-05-13T06:03:17;97800.06;;;11.06;100.00
12759;BME280;20944;47.048;15.390;2023-05-13T06:05:46;97809.50;;;11.12;100.00
12759;BME280;20944;47.048;15.390;2023-05-13T06:08:14;97769.00;;;10.91;100.00
12759;BME280;20944;47.048;15.390;2023-05-13T06:10:42;97807.78;;;11.13;100.00
12759;BME280;20944;47.048;15.390;2023-05-13T06:13:11;97808.47;;;11.19;100.00
12759;BME280;20944;47.048;15.390;2023-05-13T06:15:40;97805.91;;;11.16;100.00
12759;BME280;20944;47.048;15.390;2023-05-13T06:18:08;97798.16;;;11.12;100.00
12759;BME280;20944;47.048;15.390;2023-05-13T06:20:37;97813.78;;;11.16;100.00
12759;BME280;20944;47.048;15.390;2023-05-13T06:23:05;97817.25;;;11.17;100.00
12759;BME280;20944;47.048;15.390;2023-05-13T06:25:33;97822.41;;;11.21;100.00
12759;BME280;20944;47.048;15.390;2023-05-13T06:28:01;97810.41;;;11.11;100.00
12759;BME280;20944;47.048;15.390;2023-05-13T06:30:31;97811.22;;;11.15;100.00
12759;BME280;20944;47.048;15.390;2023-05-13T06:33:01;97803.72;;;11.01;100.00
12759;BME280;20944;47.048;15.390;2023-05-13T06:35:30;97810.53;;;11.08;100.00
12759;BME280;20944;47.048;15.390;2023-05-13T06:37:59;97824.38;;;11.13;100.00
12759;BME280;20944;47.048;15.390;2023-05-13T06:40:27;97826.13;;;11.13;100.00
12759;BME280;20944;47.048;15.390;2023-05-13T06:42:55;97810.59;;;11.05;100.00
12759;BME280;20944;47.048;15.390;2023-05-13T06:45:23;97832.03;;;11.21;100.00
12759;BME280;20944;47.048;15.390;2023-05-13T06:47:52;97827.53;;;11.26;100.00
12759;BME280;20944;47.048;15.390;2023-05-13T06:50:21;97832.78;;;11.26;100.00
12759;BME280;20944;47.048;15.390;2023-05-13T06:52:50;97834.56;;;11.24;100.00
12759;BME280;20944;47.048;15.390;2023-05-13T06:55:18;97835.50;;;11.21;100.00
12759;BME280;20944;47.048;15.390;2023-05-13T06:57:47;97828.72;;;11.14;100.00
12759;BME280;20944;47.048;15.390;2023-05-13T07:00:16;97843.38;;;11.21;100.00
12759;BME280;20944;47.048;15.390;2023-05-13T07:02:44;97839.00;;;11.22;100.00
12759;BME280;20944;47.048;15.390;2023-05-13T07:05:13;97760.72;;;10.74;100.00
12759;BME280;20944;47.048;15.390;2023-05-13T07:07:42;97843.28;;;11.24;100.00
12759;BME280;20944;47.048;15.390;2023-05-13T07:10:11;97786.50;;;10.91;100.00
12759;BME280;20944;47.048;15.390;2023-05-13T07:12:39;97850.19;;;11.28;100.00
12759;BME280;20944;47.048;15.390;2023-05-13T07:15:08;97851.16;;;11.24;100.00
12759;BME280;20944;47.048;15.390;2023-05-13T07:17:36;97849.38;;;11.26;100.00
12759;BME280;20944;47.048;15.390;2023-05-13T07:20:06;97857.09;;;11.31;100.00
12759;BME280;20944;47.048;15.390;2023-05-13T07:22:34;97856.31;;;11.27;100.00
12759;BME280;20944;47.048;15.390;2023-05-13T07:25:05;97855.53;;;11.25;100.00
12759;BME280;20944;47.048;15.390;2023-05-13T07:27:33;97863.38;;;11.25;100.00
12759;BME280;20944;47.048;15.390;2023-05-13T07:30:01;97863.38;;;11.25;100.00
12759;BME280;20944;47.048;15.390;2023-05-13T07:32:30;97860.72;;;11.27;100.00
12759;BME280;20944;47.048;15.390;2023-05-13T07:34:58;97863.22;;;11.31;100.00
12759;BME280;20944;47.048;15.390;2023-05-13T07:37:26;97860.50;;;11.34;100.00
12759;BME280;20944;47.048;15.390;2023-05-13T07:39:55;97864.00;;;11.35;100.00
12759;BME280;20944;47.048;15.390;2023-05-13T07:42:24;97844.13;;;11.26;100.00
12759;BME280;20944;47.048;15.390;2023-05-13T07:44:52;97836.09;;;11.32;100.00
12759;BME280;20944;47.048;15.390;2023-05-13T07:47:21;97863.59;;;11.49;100.00
12759;BME280;20944;47.048;15.390;2023-05-13T07:49:49;97856.59;;;11.49;100.00
12759;BME280;20944;47.048;15.390;2023-05-13T07:52:17;97859.09;;;11.54;100.00
12759;BME280;20944;47.048;15.390;2023-05-13T07:54:46;97856.22;;;11.63;100.00
12759;BME280;20944;47.048;15.390;2023-05-13T07:57:14;97859.59;;;11.67;100.00
12759;BME280;20944;47.048;15.390;2023-05-13T07:59:44;97862.09;;;11.71;100.00
12759;BME280;20944;47.048;15.390;2023-05-13T08:02:12;97862.19;;;11.68;100.00
12759;BME280;20944;47.048;15.390;2023-05-13T08:04:40;97864.84;;;11.67;100.00
12759;BME280;20944;47.048;15.390;2023-05-13T08:07:09;97861.16;;;11.74;100.00
12759;BME280;20944;47.048;15.390;2023-05-13T08:09:37;97850.69;;;11.72;100.00
12759;BME280;20944;47.048;15.390;2023-05-13T08:12:05;97862.91;;;11.73;100.00
12759;BME280;20944;47.048;15.390;2023-05-13T08:14:34;97653.09;;;10.49;100.00
12759;BME280;20944;47.048;15.390;2023-05-13T08:17:05;97867.19;;;11.77;100.00
12759;BME280;20944;47.048;15.390;2023-05-13T08:19:34;97872.44;;;11.77;100.00
12759;BME280;20944;47.048;15.390;2023-05-13T08:22:03;97865.53;;;11.73;100.00
12759;BME280;20944;47.048;15.390;2023-05-13T08:24:31;97858.75;;;11.66;100.00
12759;BME280;20944;47.048;15.390;2023-05-13T08:26:59;97876.03;;;11.73;100.00
12759;BME280;20944;47.048;15.390;2023-05-13T08:29:28;97875.34;;;11.67;100.00
12759;BME280;20944;47.048;15.390;2023-05-13T08:31:56;97801.56;;;11.15;100.00
12759;BME280;20944;47.048;15.390;2023-05-13T08:34:26;97852.88;;;11.58;100.00
12759;BME280;20944;47.048;15.390;2023-05-13T08:36:54;97868.34;;;11.67;100.00
12759;BME280;20944;47.048;15.390;2023-05-13T08:39:22;97809.81;;;11.34;100.00
12759;BME280;20944;47.048;15.390;2023-05-13T08:41:51;97873.53;;;11.70;100.00
12759;BME280;20944;47.048;15.390;2023-05-13T08:44:24;97870.75;;;11.75;100.00
12759;BME280;20944;47.048;15.390;2023-05-13T08:47:00;97866.41;;;11.74;100.00
12759;BME280;20944;47.048;15.390;2023-05-13T08:49:33;97872.34;;;11.80;100.00
12759;BME280;20944;47.048;15.390;2023-05-13T08:52:02;97872.34;;;11.80;100.00
12759;BME280;20944;47.048;15.390;2023-05-13T08:54:30;97877.59;;;11.82;100.00
12759;BME280;20944;47.048;15.390;2023-05-13T08:56:59;97877.59;;;11.82;100.00
12759;BME280;20944;47.048;15.390;2023-05-13T08:59:27;97764.63;;;11.23;100.00
12759;BME280;20944;47.048;15.390;2023-05-13T09:01:55;97856.75;;;11.76;100.00
12759;BME280;20944;47.048;15.390;2023-05-13T09:04:25;97875.00;;;11.79;100.00
12759;BME280;20944;47.048;15.390;2023-05-13T09:06:55;97870.56;;;11.82;100.00
12759;BME280;20944;47.048;15.390;2023-05-13T09:09:24;97881.13;;;11.79;100.00
12759;BME280;20944;47.048;15.390;2023-05-13T09:11:52;97870.00;;;11.71;100.00
12759;BME280;20944;47.048;15.390;2023-05-13T09:14:20;97887.94;;;11.86;100.00
12759;BME280;20944;47.048;15.390;2023-05-13T09:16:48;97877.31;;;11.91;100.00
12759;BME280;20944;47.048;15.390;2023-05-13T09:19:17;97874.63;;;11.93;100.00
12759;BME280;20944;47.048;15.390;2023-05-13T09:21:45;97873.78;;;11.92;100.00
12759;BME280;20944;47.048;15.390;2023-05-13T09:24:15;97878.09;;;11.95;100.00
12759;BME280;20944;47.048;15.390;2023-05-13T09:26:47;97877.00;;;12.02;100.00
12759;BME280;20944;47.048;15.390;2023-05-13T09:29:20;97868.41;;;11.97;100.00
12759;BME280;20944;47.048;15.390;2023-05-13T09:31:50;97846.78;;;11.88;100.00
12759;BME280;20944;47.048;15.390;2023-05-13T09:34:26;97888.09;;;12.11;100.00
12759;BME280;20944;47.048;15.390;2023-05-13T09:37:05;97895.97;;;12.11;100.00
12759;BME280;20944;47.048;15.390;2023-05-13T09:39:39;97890.53;;;12.18;100.00
12759;BME280;20944;47.048;15.390;2023-05-13T09:42:14;97886.28;;;12.13;100.00
12759;BME280;20944;47.048;15.390;2023-05-13T09:44:43;97885.50;;;12.10;100.00
12759;BME280;20944;47.048;15.390;2023-05-13T09:47:12;97874.38;;;12.02;100.00
12759;BME280;20944;47.048;15.390;2023-05-13T09:49:43;97872.75;;;11.98;100.00
12759;BME280;20944;47.048;15.390;2023-05-13T09:52:15;97884.91;;;12.00;100.00
12759;BME280;20944;47.048;15.390;2023-05-13T09:54:45;97882.34;;;11.99;100.00
12759;BME280;20944;47.048;15.390;2023-05-13T09:57:13;97889.31;;;12.00;100.00
12759;BME280;20944;47.048;15.390;2023-05-13T09:59:41;97882.34;;;11.99;100.00
12759;BME280;20944;47.048;15.390;2023-05-13T10:02:12;97875.31;;;11.99;100.00
12759;BME280;20944;47.048;15.390;2023-05-13T10:04:42;97885.63;;;12.07;100.00
12759;BME280;20944;47.048;15.390;2023-05-13T10:07:11;97885.34;;;12.16;100.00
12759;BME280;20944;47.048;15.390;2023-05-13T10:09:39;97881.56;;;12.25;100.00
12759;BME280;20944;47.048;15.390;2023-05-13T10:12:13;97876.47;;;12.19;100.00
12759;BME280;20944;47.048;15.390;2023-05-13T10:14:42;97879.56;;;12.33;100.00
12759;BME280;20944;47.048;15.390;2023-05-13T10:17:11;97882.22;;;12.33;100.00
12759;BME280;20944;47.048;15.390;2023-05-13T10:19:40;97882.88;;;12.39;100.00
12759;BME280;20944;47.048;15.390;2023-05-13T10:22:09;97881.97;;;12.40;100.00
12759;BME280;20944;47.048;15.390;2023-05-13T10:24:38;97871.53;;;12.37;100.00
12759;BME280;20944;47.048;15.390;2023-05-13T10:27:11;97875.78;;;12.41;100.00
12759;BME280;20944;47.048;15.390;2023-05-13T10:29:40;97867.13;;;12.38;100.00
12759;BME280;20944;47.048;15.390;2023-05-13T10:32:11;97864.41;;;12.41;100.00
12759;BME280;20944;47.048;15.390;2023-05-13T10:34:40;97880.00;;;12.47;100.00
12759;BME280;20944;47.048;15.390;2023-05-13T10:37:24;97883.69;;;12.41;100.00
12759;BME280;20944;47.048;15.390;2023-05-13T10:40:28;97887.47;;;12.33;100.00
12759;BME280;20944;47.048;15.390;2023-05-13T10:43:09;97885.88;;;12.27;100.00
12759;BME280;20944;47.048;15.390;2023-05-13T10:45:37;97887.47;;;12.31;100.00
12759;BME280;20944;47.048;15.390;2023-05-13T10:48:06;97888.34;;;12.32;100.00
12759;BME280;20944;47.048;15.390;2023-05-13T10:50:35;97888.25;;;12.35;100.00
12759;BME280;20944;47.048;15.390;2023-05-13T10:53:07;97890.03;;;12.34;100.00
12759;BME280;20944;47.048;15.390;2023-05-13T10:55:43;97892.41;;;12.42;100.00
12759;BME280;20944;47.048;15.390;2023-05-13T10:58:14;97890.78;;;12.38;100.00
12759;BME280;20944;47.048;15.390;2023-05-13T11:00:43;97888.16;;;12.38;100.00
12759;BME280;20944;47.048;15.390;2023-05-13T11:03:13;97888.16;;;12.38;100.00
12759;BME280;20944;47.048;15.390;2023-05-13T11:06:12;97853.88;;;12.13;100.00
12759;BME280;20944;47.048;15.390;2023-05-13T11:08:42;97871.03;;;12.26;100.00
12759;BME280;20944;47.048;15.390;2023-05-13T11:11:22;97888.06;;;12.41;100.00
12759;BME280;20944;47.048;15.390;2023-05-13T11:13:53;97880.31;;;12.36;100.00
12759;BME280;20944;47.048;15.390;2023-05-13T11:16:22;97889.75;;;12.43;100.00
12759;BME280;20944;47.048;15.390;2023-05-13T11:18:50;97890.75;;;12.39;100.00
12759;BME280;20944;47.048;15.390;2023-05-13T11:21:29;97878.97;;;12.23;100.00
12759;BME280;20944;47.048;15.390;2023-05-13T11:24:00;97895.47;;;12.28;100.00
12759;BME280;20944;47.048;15.390;2023-05-13T11:26:46;97896.44;;;12.26;100.00
12759;BME280;20944;47.048;15.390;2023-05-13T11:29:26;97876.84;;;12.08;100.00
12759;BME280;20944;47.048;15.390;2023-05-13T11:31:58;97901.88;;;12.20;100.00
12759;BME280;20944;47.048;15.390;2023-05-13T11:34:27;97899.38;;;12.15;100.00
12759;BME280;20944;47.048;15.390;2023-05-13T11:36:57;97904.72;;;12.12;100.00
12759;BME280;20944;47.048;15.390;2023-05-13T11:39:34;97898.88;;;12.02;100.00
12759;BME280;20944;47.048;15.390;2023-05-13T11:42:06;97909.16;;;12.10;100.00
12759;BME280;20944;47.048;15.390;2023-05-13T11:44:43;97908.34;;;12.08;100.00
12759;BME280;20944;47.048;15.390;2023-05-13T11:47:12;97905.69;;;12.09;100.00
12759;BME280;20944;47.048;15.390;2023-05-13T11:49:41;97902.19;;;12.09;100.00
12759;BME280;20944;47.048;15.390;2023-05-13T11:52:11;97924.88;;;12.11;100.00
12759;BME280;20944;47.048;15.390;2023-05-13T11:54:42;97903.84;;;12.11;100.00
12759;BME280;20944;47.048;15.390;2023-05-13T11:57:18;97902.09;;;12.12;100.00
12759;BME280;20944;47.048;15.390;2023-05-13T11:59:58;97897.84;;;12.08;100.00
12759;BME280;20944;47.048;15.390;2023-05-13T12:02:27;97906.47;;;12.11;100.00
12759;BME280;20944;47.048;15.390;2023-05-13T12:04:58;97840.94;;;11.77;100.00
12759;BME280;20944;47.048;15.390;2023-05-13T12:07:27;97914.13;;;12.19;100.00
12759;BME280;20944;47.048;15.390;2023-05-13T12:09:57;97920.16;;;12.23;100.00
12759;BME280;20944;47.048;15.390;2023-05-13T12:12:26;97912.41;;;12.18;100.00
12759;BME280;20944;47.048;15.390;2023-05-13T12:14:55;97911.00;;;12.06;100.00
12759;BME280;20944;47.048;15.390;2023-05-13T12:17:27;97904.25;;;11.98;100.00
12759;BME280;20944;47.048;15.390;2023-05-13T12:20:09;97930.16;;;12.10;100.00
12759;BME280;20944;47.048;15.390;2023-05-13T12:22:49;97920.56;;;12.09;100.00
12759;BME280;20944;47.048;15.390;2023-05-13T12:25:40;97924.13;;;12.06;100.00
12759;BME280;20944;47.048;15.390;2023-05-13T12:28:13;97934.69;;;12.05;100.00
12759;BME280;20944;47.048;15.390;2023-05-13T12:30:49;97926.94;;;12.00;100.00
12759;BME280;20944;47.048;15.390;2023-05-13T12:33:20;97939.38;;;11.95;100.00
12759;BME280;20944;47.048;15.390;2023-05-13T12:35:50;97934.13;;;11.94;100.00
12759;BME280;20944;47.048;15.390;2023-05-13T12:38:20;97907.22;;;11.85;100.00
12759;BME280;20944;47.048;15.390;2023-05-13T12:40:50;97902.78;;;11.87;100.00
12759;BME280;20944;47.048;15.390;2023-05-13T12:43:19;97933.66;;;12.10;100.00
12759;BME280;20944;47.048;15.390;2023-05-13T12:45:51;97934.63;;;12.08;100.00
12759;BME280;20944;47.048;15.390;2023-05-13T12:48:23;97937.09;;;12.12;100.00
12759;BME280;20944;47.048;15.390;2023-05-13T12:50:52;97900.81;;;11.96;100.00
12759;BME280;20944;47.048;15.390;2023-05-13T12:53:22;97937.13;;;12.11;100.00